map of MPM home
MPM - Airport
Location
City:  Maputo, Maputo, Mozambique
Name:Maputo International Airport
ICAO:FQMA
IATA:MPM

Details
Type:Airport (Aerodrome, Airfield)
Use:Public/Civil, Military, International (customs port of entry)
Latitude:2555'15"S (-25.920835)
Longitude:3234'21"E (32.572606)
Datum:WGS 1984
Elevation:145 ft (44 m)
Variation:20.30W (WMM2015 magnetic declination)
-0.12 annual change
Runways:2
Longest:12008 × 148 ft (3660 × 45 m), paved

Time
Time Zone:UTC+2
Local Time:

Weather
METAR:FQMA 210300Z 20010KT 9999 FEW020 15/11 Q1028 NOSIG
TAF:FQMA 202200Z 2100/2206 21012KT 9999 BKN020
BECMG 2108/2110 15010G20KT SCT025
BECMG 2118/2120 17012KT FEW020
BECMG 2203/2205 23010KT SCT020 TX24/2113Z TN16/2103Z

Related Locations
Nearby:
Farthest:ITO: 11793 mi / 18979 km
Hilo [Hilo Intl], Hawaii, HI, US

Find:

   beyond  
but within

Other Information
Maps:
NOTAMs:
Links:
Sources:

  
  • flag of Mozambique
  

Sectional Chart

Flight Planning
at skyvector.com

Satellite Image

Google Maps Satellite view

 

Copyright © 2004-2018 Karl L. Swartz. All rights reserved.
The Great Circle Mapper name and logo are trademarks of the Great Circle Mapper.
All other trademarks mentioned herein belong to their respective owners.
Please see credits for attibutions and further copyright information.

  Follow gcmap on Facebook Follow gcmap on Twitter Follow gcmap on Google+ GCmap on LinkedIn

hCard Microformat

Geo Microformat